Time;durP1;ratioP1;P1;durP2;ratioP2;P2;SDS_P1;SDS_P2;PMS_P1;PMS_P2;Temp;Humidity;BMP_temperature;BMP_pressure;BME280_temperature;BME280_humidity;BME280_pressure;Samples;Min_cycle;Max_cycle;Signal;HPM_P1;HPM_P2
2022/05/10 00:01:38;;;;;;;15.55;3.70;;;;;;;15.74;55.60;102054.63;5017294;28;96686;-34
2022/05/10 00:04:04;;;;;;;13.73;3.63;;;;;;;15.68;55.49;102051.28;4999453;28;96630;-35
2022/05/10 00:06:36;;;;;;;8.80;4.07;;;;;;;15.68;55.57;102062.22;4998883;28;101156;-34
2022/05/10 00:09:02;;;;;;;9.80;3.85;;;;;;;15.63;55.63;102042.47;4999366;28;101164;-35
2022/05/10 00:11:28;;;;;;;12.85;4.25;;;;;;;15.55;55.92;102031.19;5004325;28;96542;-35
2022/05/10 00:13:53;;;;;;;13.82;3.65;;;;;;;15.59;56.33;102040.03;5018228;28;115980;-35
2022/05/10 00:16:19;;;;;;;9.05;3.88;;;;;;;15.62;55.05;102031.69;5035046;28;124539;-35
2022/05/10 00:18:45;;;;;;;12.07;3.53;;;;;;;15.60;55.36;102036.34;5037138;28;97507;-35
2022/05/10 00:21:12;;;;;;;11.02;4.22;;;;;;;15.60;55.40;102036.34;5018565;28;96642;-35
2022/05/10 00:23:38;;;;;;;10.55;3.83;;;;;;;15.59;55.98;102031.84;5035662;28;96587;-35
2022/05/10 00:26:04;;;;;;;17.15;4.25;;;;;;;15.56;56.12;102030.19;5018274;28;101467;-35
2022/05/10 00:28:29;;;;;;;8.60;3.88;;;;;;;15.56;55.74;102030.19;5036762;28;97855;-34
2022/05/10 00:30:54;;;;;;;14.70;4.50;;;;;;;15.51;55.49;102035.94;5037045;28;96622;-35
2022/05/10 00:33:25;;;;;;;12.63;4.68;;;;;;;15.52;55.54;102028.66;5037546;28;96788;-35
2022/05/10 00:35:51;;;;;;;12.70;4.67;;;;;;;15.40;56.39;102019.38;5018383;28;99099;-35
2022/05/10 00:38:16;;;;;;;9.50;3.90;;;;;;;15.47;56.31;102036.28;5036760;28;97773;-35
2022/05/10 00:40:42;;;;;;;10.27;3.75;;;;;;;15.38;55.64;102020.47;5036468;28;96475;-35
2022/05/10 00:43:20;;;;;;;9.40;3.90;;;;;;;15.40;56.46;102027.59;5036787;28;96830;-35
2022/05/10 00:46:05;;;;;;;10.77;3.83;;;;;;;15.35;56.66;102023.38;5035007;28;101121;-35
2022/05/10 00:48:33;;;;;;;6.95;3.05;;;;;;;15.42;56.26;102033.81;5034869;28;100945;-34
2022/05/10 00:51:18;;;;;;;16.00;4.55;;;;;;;15.42;55.73;102025.63;5036905;28;96659;-35
2022/05/10 00:53:56;;;;;;;7.38;2.95;;;;;;;15.43;55.98;102021.03;5036070;28;96947;-34
2022/05/10 00:56:31;;;;;;;13.88;3.55;;;;;;;15.44;56.14;102020.94;5036208;28;99363;-35
2022/05/10 00:59:28;;;;;;;11.38;3.72;;;;;;;15.40;55.97;102005.75;5036552;28;98832;-35
2022/05/10 01:02:01;;;;;;;10.60;3.78;;;;;;;15.42;56.45;102003.78;5035782;28;96737;-35
2022/05/10 01:04:36;;;;;;;9.43;3.60;;;;;;;15.45;55.73;102014.50;5018315;28;96741;-35
2022/05/10 01:07:15;;;;;;;12.95;4.15;;;;;;;15.40;56.08;101996.69;5017537;28;101297;-35
2022/05/10 01:09:47;;;;;;;11.90;4.03;;;;;;;15.41;55.80;101996.56;5017887;28;100852;-35
2022/05/10 01:12:17;;;;;;;15.38;4.15;;;;;;;15.44;55.79;101998.22;5034046;28;96627;-35
2022/05/10 01:14:50;;;;;;;9.20;4.15;;;;;;;15.35;55.97;101979.69;5035740;28;106051;-35
2022/05/10 01:17:16;;;;;;;10.38;3.67;;;;;;;15.38;55.70;101982.25;5034517;28;100805;-35
2022/05/10 01:19:43;;;;;;;10.38;4.05;;;;;;;15.35;55.77;101977.84;5017641;28;101040;-35
2022/05/10 01:22:30;;;;;;;14.02;4.80;;;;;;;15.42;55.95;101981.03;5034656;28;97535;-35
2022/05/10 01:25:06;;;;;;;10.35;4.35;;;;;;;15.44;57.14;101977.25;5036740;28;96768;-35
2022/05/10 01:28:23;;;;;;;12.10;4.05;;;;;;;15.44;56.47;101979.09;5017730;28;100840;-35
2022/05/10 01:30:49;;;;;;;16.27;4.10;;;;;;;15.40;55.72;101958.44;4993216;28;101324;-34
2022/05/10 01:33:30;;;;;;;10.90;4.15;;;;;;;15.45;56.19;101968.09;4975936;28;96741;-34
2022/05/10 01:36:08;;;;;;;11.48;4.30;;;;;;;15.39;55.76;101956.69;5019854;28;96719;-35
2022/05/10 01:39:00;;;;;;;10.63;4.35;;;;;;;15.44;56.45;101968.19;5034965;28;117059;-35
2022/05/10 01:41:56;;;;;;;11.88;4.10;;;;;;;15.43;56.64;101959.13;5035321;28;98864;-34
2022/05/10 01:44:33;;;;;;;12.75;3.72;;;;;;;15.38;56.64;101961.25;5035356;28;96627;-34
2022/05/10 01:47:13;;;;;;;14.70;4.07;;;;;;;15.33;56.64;101946.16;5017654;28;96816;-35
2022/05/10 01:49:48;;;;;;;8.15;4.00;;;;;;;15.36;56.34;101951.41;5033915;28;101312;-35
2022/05/10 01:52:23;;;;;;;11.82;4.18;;;;;;;15.37;56.49;101936.78;5034466;28;101170;-35
2022/05/10 01:54:58;;;;;;;15.43;3.80;;;;;;;15.41;56.18;101949.28;5017657;28;96764;-35
2022/05/10 01:57:24;;;;;;;16.13;4.47;;;;;;;15.37;55.96;101926.72;5034252;28;96720;-34
2022/05/10 01:59:55;;;;;;;11.55;4.78;;;;;;;15.39;56.25;101934.84;5034295;28;100910;-35
2022/05/10 02:02:24;;;;;;;11.40;4.55;;;;;;;15.43;56.66;101930.94;5033867;28;104681;-35
2022/05/10 02:04:54;;;;;;;11.35;4.75;;;;;;;15.46;56.04;101930.72;5017346;28;96739;-35
2022/05/10 02:07:23;;;;;;;11.30;4.20;;;;;;;15.49;55.67;101922.34;5035716;28;96561;-35
2022/05/10 02:09:59;;;;;;;10.30;4.40;;;;;;;15.51;56.01;101925.84;5033810;28;101279;-35
2022/05/10 02:12:48;;;;;;;16.27;5.00;;;;;;;15.52;56.50;101913.97;5020674;28;97317;-35
2022/05/10 02:15:24;;;;;;;11.45;4.68;;;;;;;15.56;56.34;101925.53;4997023;28;96598;-35
2022/05/10 02:18:01;;;;;;;11.77;4.40;;;;;;;15.43;56.22;101903.63;4997473;28;96908;-35
2022/05/10 02:20:33;;;;;;;10.13;4.43;;;;;;;15.53;56.01;101915.69;4996901;28;100778;-35
2022/05/10 02:23:17;;;;;;;;;;;;;;;15.56;56.84;101915.50;5013888;28;99014;-35
2022/05/10 02:25:47;;;;;;;10.98;3.78;;;;;;;15.55;57.23;101907.41;5014931;28;96585;-35
2022/05/10 02:28:43;;;;;;;7.60;3.83;;;;;;;15.50;56.60;101899.53;5013710;28;96809;-35
2022/05/10 02:31:18;;;;;;;13.00;4.68;;;;;;;15.54;56.67;101898.34;5014747;28;97953;-35
2022/05/10 02:33:44;;;;;;;11.57;4.82;;;;;;;15.57;56.50;101895.41;4996723;28;100600;-35
2022/05/10 02:36:10;;;;;;;11.70;4.88;;;;;;;15.56;57.35;101885.44;5014856;28;96565;-35
2022/05/10 02:38:38;;;;;;;11.88;4.55;;;;;;;15.56;57.48;101885.44;5015006;28;96751;-34
2022/05/10 02:41:08;;;;;;;15.63;5.60;;;;;;;15.60;56.29;101892.47;4996411;28;100976;-35
2022/05/10 02:43:53;;;;;;;14.95;5.18;;;;;;;15.62;57.06;101890.53;4996434;28;100736;-35
2022/05/10 02:46:19;;;;;;;11.93;4.72;;;;;;;15.59;56.72;101885.28;5014822;28;96532;-35
2022/05/10 02:48:46;;;;;;;15.05;4.78;;;;;;;15.60;56.14;101878.81;5015025;28;96844;-35
2022/05/10 02:51:11;;;;;;;12.60;5.20;;;;;;;15.62;56.42;101881.44;4996012;28;101636;-35
2022/05/10 02:53:37;;;;;;;10.48;4.07;;;;;;;15.65;56.81;101882.13;5013846;28;122318;-35
2022/05/10 02:56:05;;;;;;;18.13;4.45;;;;;;;15.67;56.49;101874.69;5014929;28;96427;-34
2022/05/10 02:58:42;;;;;;;12.57;4.93;;;;;;;15.77;56.21;101880.44;4996582;28;96955;-35
2022/05/10 03:01:19;;;;;;;10.20;4.18;;;;;;;15.77;56.84;101871.38;4996162;28;99339;-35
2022/05/10 03:03:45;;;;;;;13.95;4.45;;;;;;;15.80;56.00;101873.91;5014309;28;99023;-35
2022/05/10 03:06:17;;;;;;;14.02;5.32;;;;;;;15.77;55.85;101853.13;5014632;28;96449;-35
2022/05/10 03:08:43;;;;;;;11.38;5.03;;;;;;;15.78;56.65;101854.00;5014854;28;96593;-35
2022/05/10 03:11:08;;;;;;;20.20;5.57;;;;;;;15.78;55.95;101857.63;5013445;28;97298;-34
2022/05/10 03:13:33;;;;;;;13.90;4.72;;;;;;;15.78;55.94;101843.97;4995647;28;123204;-35
2022/05/10 03:15:58;;;;;;;10.20;4.20;;;;;;;15.79;56.41;101851.19;5012776;28;114606;-35
2022/05/10 03:18:24;;;;;;;12.70;5.30;;;;;;;15.78;56.33;101843.06;5013468;28;118282;-35
2022/05/10 03:20:49;;;;;;;21.80;4.93;;;;;;;15.82;55.54;101856.44;5012633;28;99615;-35
2022/05/10 03:23:14;;;;;;;13.73;5.50;;;;;;;15.76;56.62;101845.94;5013722;28;109871;-34
2022/05/10 03:25:40;;;;;;;18.90;6.18;;;;;;;15.79;56.51;101851.19;5014398;28;96701;-34
2022/05/10 03:28:06;;;;;;;18.95;5.18;;;;;;;15.82;56.17;101845.50;5014379;28;96815;-35
2022/05/10 03:30:31;;;;;;;13.48;5.53;;;;;;;15.81;57.00;101841.03;4996132;28;100860;-34
2022/05/10 03:32:57;;;;;;;13.27;5.35;;;;;;;15.76;56.75;101839.59;5014302;28;99637;-35
2022/05/10 03:35:23;;;;;;;14.25;4.82;;;;;;;15.80;56.33;101839.28;5013490;28;115584;-35
2022/05/10 03:37:48;;;;;;;14.93;5.47;;;;;;;15.86;56.25;101849.78;5014236;28;96870;-35
2022/05/10 03:40:14;;;;;;;12.32;5.15;;;;;;;15.79;55.83;101833.91;5013240;28;99454;-34
2022/05/10 03:42:47;;;;;;;17.60;5.13;;;;;;;15.86;56.12;101840.72;5014063;28;97741;-35
2022/05/10 03:45:14;;;;;;;13.68;5.93;;;;;;;15.87;56.30;101843.34;4996269;28;96743;-34
2022/05/10 03:47:40;;;;;;;17.98;5.60;;;;;;;15.84;56.74;101831.75;4996061;28;97135;-35
2022/05/10 03:50:07;;;;;;;15.02;5.10;;;;;;;15.83;56.00;101825.41;5013975;28;97552;-34
2022/05/10 03:52:33;;;;;;;21.13;6.13;;;;;;;15.81;56.41;101829.22;4995441;28;99270;-35
2022/05/10 03:54:58;;;;;;;15.70;6.28;;;;;;;15.78;56.68;101824.84;5014056;28;96709;-35
2022/05/10 03:57:24;;;;;;;16.42;5.35;;;;;;;15.72;56.46;101822.53;5017451;28;97434;-35
2022/05/10 03:59:49;;;;;;;13.43;5.57;;;;;;;15.76;56.22;101824.06;5016877;28;99326;-34
2022/05/10 04:02:14;;;;;;;16.33;6.05;;;;;;;15.76;56.78;101832.28;5017089;28;97802;-34
2022/05/10 04:04:40;;;;;;;17.45;6.43;;;;;;;15.69;57.00;101803.59;5016596;28;96617;-34
2022/05/10 04:07:06;;;;;;;15.70;5.82;;;;;;;15.71;56.59;101818.91;4999385;28;96764;-35
2022/05/10 04:09:32;;;;;;;14.52;6.38;;;;;;;15.70;56.90;101817.16;5016717;28;99201;-34
2022/05/10 04:11:57;;;;;;;13.32;5.38;;;;;;;15.70;56.70;101817.16;5016340;28;98012;-35
2022/05/10 04:14:24;;;;;;;20.08;5.47;;;;;;;15.69;56.76;101818.13;5017312;28;96458;-35
2022/05/10 04:16:49;;;;;;;16.60;5.45;;;;;;;15.74;56.67;101819.69;4998895;28;96881;-35
2022/05/10 04:19:14;;;;;;;15.30;5.50;;;;;;;15.75;56.76;101805.03;5015935;28;122821;-35
2022/05/10 04:21:40;;;;;;;15.57;5.68;;;;;;;15.70;57.28;101808.09;5015795;28;127163;-35
2022/05/10 04:24:06;;;;;;;16.63;6.85;;;;;;;15.68;57.32;101800.00;5017271;28;96602;-35
2022/05/10 04:26:31;;;;;;;14.32;6.07;;;;;;;15.71;57.23;101810.72;5016799;28;96738;-35
2022/05/10 04:28:57;;;;;;;10.95;4.90;;;;;;;15.76;56.67;101810.41;5015871;28;111160;-35
2022/05/10 04:31:23;;;;;;;15.50;6.15;;;;;;;15.69;57.06;101799.00;5015166;28;101074;-35
2022/05/10 04:33:48;;;;;;;15.30;6.15;;;;;;;15.76;57.49;101807.69;5016670;28;96658;-35
2022/05/10 04:36:13;;;;;;;11.75;5.07;;;;;;;15.73;57.22;101807.00;5016494;28;96838;-35
2022/05/10 04:38:39;;;;;;;12.98;5.15;;;;;;;15.69;57.13;101803.59;5015648;28;120526;-35
2022/05/10 04:41:25;;;;;;;12.10;6.22;;;;;;;15.78;57.63;101800.25;5016121;28;99479;-35
2022/05/10 04:43:51;;;;;;;12.27;5.88;;;;;;;15.76;57.10;101799.50;4998713;28;96666;-35
2022/05/10 04:46:17;;;;;;;11.25;5.63;;;;;;;15.77;57.20;101798.50;4999304;28;96792;-35
2022/05/10 04:48:43;;;;;;;18.90;6.68;;;;;;;15.81;57.56;101796.44;5015941;28;99565;-35
2022/05/10 04:51:09;;;;;;;17.38;5.78;;;;;;;15.80;57.41;101789.22;5016283;28;98825;-35
2022/05/10 04:53:34;;;;;;;15.45;5.18;;;;;;;15.84;58.00;101798.97;5015580;28;105532;-35
2022/05/10 04:56:00;;;;;;;17.67;5.65;;;;;;;15.87;57.31;101796.00;5016045;28;108762;-35
2022/05/10 04:58:25;;;;;;;16.10;6.15;;;;;;;15.85;57.68;101789.75;5016144;28;99285;-35
2022/05/10 05:00:52;;;;;;;13.35;6.32;;;;;;;15.87;57.51;101787.81;5016253;28;97302;-35
2022/05/10 05:03:17;;;;;;;12.75;5.22;;;;;;;15.85;56.95;101778.84;4998105;28;96613;-35
2022/05/10 05:05:42;;;;;;;13.45;5.63;;;;;;;15.90;57.09;101784.88;5016484;28;96761;-35
2022/05/10 05:08:08;;;;;;;18.80;5.32;;;;;;;15.97;57.39;101798.97;5014223;28;125932;-35
2022/05/10 05:10:34;;;;;;;13.32;5.57;;;;;;;16.00;57.30;101796.06;5015431;28;114230;-35
2022/05/10 05:12:59;;;;;;;11.55;5.10;;;;;;;16.03;57.61;101793.97;5033075;28;96913;-35
2022/05/10 05:15:24;;;;;;;19.75;6.38;;;;;;;16.04;57.03;101787.53;5035431;28;112365;-35
2022/05/10 05:17:50;;;;;;;21.60;6.65;;;;;;;16.05;57.32;101775.59;5035255;28;99267;-35
2022/05/10 05:20:15;;;;;;;21.13;7.45;;;;;;;16.10;57.02;101784.34;5035729;28;97351;-35
2022/05/10 05:22:40;;;;;;;22.92;6.05;;;;;;;16.20;56.88;101786.44;5035696;28;109788;-34
2022/05/10 05:25:12;;;;;;;20.65;6.82;;;;;;;16.24;57.13;101780.66;5035689;28;108598;-35
2022/05/10 05:27:37;;;;;;;19.30;6.03;;;;;;;16.30;57.09;101787.53;5034938;28;126890;-35
2022/05/10 05:30:03;;;;;;;20.02;6.88;;;;;;;16.32;57.38;101789.19;5035605;28;108173;-35
2022/05/10 05:32:31;;;;;;;15.18;4.95;;;;;;;16.34;56.38;101779.00;5035994;28;96730;-35
2022/05/10 05:34:57;;;;;;;20.40;6.63;;;;;;;16.46;56.25;101788.22;5034871;28;96775;-35
2022/05/10 05:37:34;;;;;;;15.63;5.65;;;;;;;16.47;56.31;101786.34;5017274;28;98902;-35
2022/05/10 05:40:03;;;;;;;18.77;6.18;;;;;;;16.55;56.33;101795.75;5017396;28;101378;-35
2022/05/10 05:42:29;;;;;;;10.57;5.05;;;;;;;16.49;56.00;101779.81;5033974;28;96575;-35
2022/05/10 05:44:54;;;;;;;14.80;5.47;;;;;;;16.60;56.18;101792.69;5034316;28;96897;-35
2022/05/10 05:47:19;;;;;;;17.77;6.50;;;;;;;16.60;56.58;101789.09;5035730;28;97393;-35
2022/05/10 05:49:45;;;;;;;17.45;6.22;;;;;;;16.63;56.45;101783.38;5035235;28;99262;-35
2022/05/10 05:52:11;;;;;;;15.32;5.38;;;;;;;16.63;56.12;101784.25;5035620;28;96624;-34
2022/05/10 05:54:36;;;;;;;12.25;5.15;;;;;;;16.72;56.72;101793.66;5035900;28;96742;-35
2022/05/10 05:57:06;;;;;;;21.20;7.20;;;;;;;16.75;56.11;101785.22;5035576;28;98034;-34
2022/05/10 05:59:33;;;;;;;22.50;6.30;;;;;;;16.75;55.99;101785.22;5017010;28;100786;-34
2022/05/10 06:01:59;;;;;;;22.38;5.75;;;;;;;16.75;56.00;101772.41;5017335;28;96564;-35
2022/05/10 06:04:24;;;;;;;18.52;6.32;;;;;;;16.82;55.80;101778.34;5035816;28;96813;-35
2022/05/10 06:06:50;;;;;;;15.27;5.68;;;;;;;16.88;56.20;101774.31;5034961;28;97436;-35
2022/05/10 06:09:19;;;;;;;18.80;6.25;;;;;;;16.85;56.23;101759.00;5035074;28;97791;-35
2022/05/10 06:11:45;;;;;;;12.25;4.65;;;;;;;16.88;56.20;101753.28;5016577;28;96881;-35
2022/05/10 06:14:10;;;;;;;15.05;5.35;;;;;;;16.95;56.07;101757.31;5035469;28;96767;-35
2022/05/10 06:16:40;;;;;;;16.92;6.28;;;;;;;16.97;56.13;101751.72;5034647;28;111596;-35
2022/05/10 06:19:05;;;;;;;13.38;5.97;;;;;;;17.03;55.57;101761.34;5016546;28;100963;-35
2022/05/10 06:21:32;;;;;;;12.90;5.70;;;;;;;17.11;55.90;101764.38;5035294;28;96593;-34
2022/05/10 06:23:58;;;;;;;13.13;6.18;;;;;;;17.14;55.65;101759.56;5035555;28;96819;-35
2022/05/10 06:26:23;;;;;;;18.58;5.75;;;;;;;17.19;55.34;101756.50;5034992;28;97505;-35
2022/05/10 06:28:48;;;;;;;15.05;5.70;;;;;;;17.23;55.30;101755.25;5034829;28;97782;-35
2022/05/10 06:31:13;;;;;;;18.48;6.68;;;;;;;17.27;55.13;101754.03;5034072;28;110553;-35
2022/05/10 06:33:39;;;;;;;17.67;6.10;;;;;;;17.36;55.17;101758.81;5035597;28;96803;-35
2022/05/10 06:36:04;;;;;;;16.10;6.22;;;;;;;17.38;55.67;101764.19;5034377;28;115760;-35
2022/05/10 06:38:31;;;;;;;12.27;5.10;;;;;;;17.38;55.38;101745.88;5034790;28;96565;-35
2022/05/10 06:41:04;;;;;;;16.27;5.57;;;;;;;17.43;55.16;101737.31;5016729;28;96572;-35
2022/05/10 06:43:35;;;;;;;14.32;5.53;;;;;;;17.52;55.12;101746.69;5034916;28;96651;-35
2022/05/10 06:46:11;;;;;;;18.73;5.70;;;;;;;17.58;55.30;101743.47;5034542;28;99492;-35
2022/05/10 06:48:37;;;;;;;14.20;5.78;;;;;;;17.62;55.63;101737.66;5034992;28;98726;-35
2022/05/10 06:51:08;;;;;;;17.27;5.07;;;;;;;17.63;55.49;101738.53;5033520;28;96561;-35
2022/05/10 06:53:33;;;;;;;15.70;5.45;;;;;;;17.65;55.39;101720.09;5033403;28;96835;-35
2022/05/10 06:55:59;;;;;;;14.13;5.13;;;;;;;17.72;55.08;101724.09;5032574;28;100611;-35
2022/05/10 06:58:25;;;;;;;12.75;5.13;;;;;;;17.77;54.98;101712.78;5034455;28;99377;-35
2022/05/10 07:00:50;;;;;;;11.30;4.88;;;;;;;17.82;55.10;101716.94;5033269;28;96661;-35
2022/05/10 07:03:16;;;;;;;11.80;5.13;;;;;;;17.87;55.33;101719.31;5034296;28;109796;-35
2022/05/10 07:05:44;;;;;;;11.13;4.60;;;;;;;17.95;54.80;101725.09;5016185;28;100962;-35
2022/05/10 07:08:10;;;;;;;14.10;5.40;;;;;;;17.98;54.85;101708.38;5016073;28;100828;-35
2022/05/10 07:10:35;;;;;;;12.05;5.10;;;;;;;18.07;54.38;101711.38;5016144;28;96573;-35
2022/05/10 07:13:01;;;;;;;11.52;4.65;;;;;;;18.15;54.92;101717.16;5017910;28;96828;-35
2022/05/10 07:15:26;;;;;;;7.93;4.32;;;;;;;18.18;54.69;101722.38;5013741;28;99570;-35
2022/05/10 07:17:52;;;;;;;12.90;4.88;;;;;;;18.16;54.13;101707.91;5014182;28;98255;-35
2022/05/10 07:20:19;;;;;;;12.35;4.35;;;;;;;18.30;54.47;101712.28;5013591;28;96592;-35
2022/05/10 07:22:45;;;;;;;12.60;5.32;;;;;;;18.34;54.44;101705.56;4979889;28;96836;-35
2022/05/10 07:25:13;;;;;;;13.80;4.40;;;;;;;18.40;54.53;101714.19;5014025;28;99465;-35
2022/05/10 07:27:40;;;;;;;14.52;4.78;;;;;;;18.46;54.03;101715.56;5012486;28;101055;-35
2022/05/10 07:30:07;;;;;;;15.45;4.88;;;;;;;18.49;54.04;101715.28;5012866;28;96605;-35
2022/05/10 07:32:33;;;;;;;11.18;4.80;;;;;;;18.54;54.56;101715.78;5017694;28;96889;-35
2022/05/10 07:35:01;;;;;;;6.78;3.83;;;;;;;18.58;53.97;101711.81;5017501;28;98187;-35
2022/05/10 07:37:27;;;;;;;10.65;4.40;;;;;;;18.65;53.51;101721.28;5017319;28;99480;-35
2022/05/10 07:39:52;;;;;;;12.85;4.43;;;;;;;18.76;53.85;101714.03;5018015;28;96622;-35
2022/05/10 07:42:17;;;;;;;12.43;4.47;;;;;;;18.84;53.74;101703.34;5016756;28;116441;-35
2022/05/10 07:44:43;;;;;;;8.73;4.18;;;;;;;18.97;53.12;101701.28;5016328;28;116837;-35
2022/05/10 07:47:09;;;;;;;13.02;5.10;;;;;;;19.07;52.88;101694.06;5016475;28;122158;-35
2022/05/10 07:49:34;;;;;;;10.05;4.18;;;;;;;19.14;53.07;101694.41;5017547;28;96485;-35
2022/05/10 07:51:59;;;;;;;9.15;4.60;;;;;;;19.24;53.00;101700.00;4999402;28;97016;-35
2022/05/10 07:54:25;;;;;;;12.88;4.50;;;;;;;19.29;53.06;101686.75;5017326;28;97898;-35
2022/05/10 07:56:50;;;;;;;7.78;3.83;;;;;;;19.33;52.68;101682.75;5016948;28;99338;-35
2022/05/10 07:59:15;;;;;;;7.13;4.18;;;;;;;19.35;52.41;101686.19;5017538;28;96623;-35
2022/05/10 08:01:41;;;;;;;9.07;3.88;;;;;;;19.36;52.84;101685.22;5017865;28;96872;-35
2022/05/10 08:04:08;;;;;;;10.65;4.18;;;;;;;19.42;52.58;101692.03;5017188;28;97499;-35
2022/05/10 08:06:33;;;;;;;7.65;3.63;;;;;;;19.59;52.36;101698.84;4998629;28;101350;-35
2022/05/10 08:08:58;;;;;;;6.68;3.63;;;;;;;19.75;52.24;101693.78;4982148;28;96544;-35
2022/05/10 08:11:24;;;;;;;10.13;3.63;;;;;;;19.92;52.25;101695.94;5016523;28;96836;-35
2022/05/10 08:13:49;;;;;;;9.35;4.32;;;;;;;19.99;51.90;101687.16;5016983;28;97869;-35
2022/05/10 08:16:15;;;;;;;9.60;3.10;;;;;;;20.11;51.47;101703.44;5016608;28;98785;-35
2022/05/10 08:18:41;;;;;;;7.65;3.25;;;;;;;20.22;50.93;101687.88;5015877;28;96617;-35
2022/05/10 08:21:07;;;;;;;11.10;3.40;;;;;;;20.27;50.11;101688.31;5016915;28;96892;-35
2022/05/10 08:23:35;;;;;;;8.65;3.53;;;;;;;20.39;50.24;101694.63;4998614;28;100848;-35
2022/05/10 08:26:03;;;;;;;7.88;3.20;;;;;;;20.53;50.59;101699.75;4998862;28;101395;-35
2022/05/10 08:28:31;;;;;;;7.43;2.83;;;;;;;20.62;50.30;101693.44;4998774;28;97956;-35
2022/05/10 08:30:57;;;;;;;6.13;3.55;;;;;;;20.74;50.06;101692.31;5015719;28;96832;-35
2022/05/10 08:33:26;;;;;;;10.13;3.88;;;;;;;20.88;50.08;101690.16;4997988;28;101016;-35
2022/05/10 08:35:54;;;;;;;7.43;3.50;;;;;;;20.92;49.65;101688.88;4998139;28;100893;-35
2022/05/10 08:38:20;;;;;;;7.80;3.20;;;;;;;20.94;50.07;101693.25;4998666;28;96673;-35
2022/05/10 08:41:01;;;;;;;8.63;3.70;;;;;;;20.96;50.33;101682.94;5016739;28;97811;-35
2022/05/10 08:43:31;;;;;;;18.07;3.87;;;;;;;20.93;50.38;101682.38;4998422;28;100933;-35
2022/05/10 08:45:57;;;;;;;7.20;3.83;;;;;;;21.02;49.84;101686.16;4998685;28;99197;-35
2022/05/10 08:48:27;;;;;;;12.38;3.60;;;;;;;20.94;50.22;101682.22;4998518;28;96600;-35
2022/05/10 08:50:52;;;;;;;9.68;4.00;;;;;;;21.03;50.30;101697.03;4998925;28;96881;-35
2022/05/10 08:53:19;;;;;;;9.55;3.75;;;;;;;20.99;49.93;101701.94;5016050;28;117239;-35
2022/05/10 08:55:56;;;;;;;7.90;3.90;;;;;;;20.88;50.17;101693.81;4998128;28;101136;-35
2022/05/10 08:58:42;;;;;;;8.95;3.63;;;;;;;20.84;50.22;101688.72;4998039;28;96658;-35
2022/05/10 09:01:12;;;;;;;14.38;4.13;;;;;;;20.94;50.63;101697.88;5015172;28;96558;-35
2022/05/10 09:03:47;;;;;;;7.55;3.72;;;;;;;20.96;50.03;101691.22;4998017;28;101104;-35
2022/05/10 09:06:34;;;;;;;9.05;4.13;;;;;;;21.14;50.12;101696.03;4998184;28;100834;-35
2022/05/10 09:09:13;;;;;;;6.78;3.67;;;;;;;21.12;50.48;101690.69;4998365;28;96587;-35
2022/05/10 09:11:50;;;;;;;9.88;3.78;;;;;;;21.21;49.28;101688.94;4997430;28;96926;-35
2022/05/10 09:14:15;;;;;;;8.23;3.08;;;;;;;21.14;49.32;101682.25;5014717;28;100861;-35
2022/05/10 09:16:41;;;;;;;8.20;3.40;;;;;;;21.14;49.33;101679.50;4998084;28;98973;-35
2022/05/10 09:19:10;;;;;;;7.97;3.72;;;;;;;21.12;49.94;101689.81;5016198;28;96520;-35
2022/05/10 09:21:50;;;;;;;7.38;3.85;;;;;;;21.16;50.06;101702.25;4997761;28;96865;-35
2022/05/10 09:24:32;;;;;;;9.00;4.38;;;;;;;21.15;50.17;101695.03;5015327;28;99034;-35
2022/05/10 09:27:05;;;;;;;5.72;3.15;;;;;;;21.16;49.94;101703.13;4997803;28;100697;-35
2022/05/10 09:29:36;;;;;;;8.10;3.65;;;;;;;21.19;50.41;101691.84;4998049;28;96573;-35
2022/05/10 09:35:29;;;;;;;8.80;3.85;;;;;;;21.41;50.51;101700.88;5016054;28;97140;-35
2022/05/10 09:38:03;;;;;;;6.88;3.38;;;;;;;21.46;50.48;101684.78;5011500;28;98102;-35
2022/05/10 09:40:32;;;;;;;9.68;3.78;;;;;;;21.58;50.32;101680.00;4997710;28;96663;-35
2022/05/10 09:43:19;;;;;;;12.95;4.28;;;;;;;21.72;50.24;101681.44;4998137;28;96834;-35
2022/05/10 09:46:02;;;;;;;8.55;4.43;;;;;;;21.81;49.38;101673.16;5015378;28;99408;-35
2022/05/10 09:48:28;;;;;;;12.55;4.60;;;;;;;21.96;48.92;101689.25;4997540;28;99583;-35
2022/05/10 09:50:53;;;;;;;10.55;4.43;;;;;;;22.04;48.84;101681.06;5014872;28;96623;-35
2022/05/10 09:53:20;;;;;;;9.70;4.90;;;;;;;22.24;48.65;101693.84;5014092;28;114456;-35
2022/05/10 09:55:54;;;;;;;17.00;4.82;;;;;;;22.32;47.86;101686.69;4997419;28;99010;-35
2022/05/10 09:58:23;;;;;;;8.90;3.92;;;;;;;22.57;47.93;101691.53;5015280;28;97867;-35
2022/05/10 10:00:54;;;;;;;10.20;4.15;;;;;;;22.79;47.07;101679.22;4997436;28;96791;-35
2022/05/10 10:03:26;;;;;;;10.07;4.63;;;;;;;23.06;47.33;101685.75;5015558;28;96805;-35
2022/05/10 10:05:54;;;;;;;10.55;3.67;;;;;;;22.97;46.66;101667.31;4997016;28;100879;-35
2022/05/10 10:08:37;;;;;;;7.15;3.45;;;;;;;23.12;46.75;101679.63;5014154;28;100860;-35
2022/05/10 10:11:10;;;;;;;7.72;3.97;;;;;;;22.96;46.08;101671.97;4996968;28;96869;-34
2022/05/10 10:13:39;;;;;;;9.23;4.45;;;;;;;22.62;45.58;101680.00;4997139;28;96719;-35
2022/05/10 10:16:15;;;;;;;8.20;3.72;;;;;;;22.66;46.95;101692.50;4996170;28;100809;-35
2022/05/10 10:18:49;;;;;;;8.77;3.55;;;;;;;23.09;46.77;101674.38;5013635;28;100730;-35
2022/05/10 10:21:25;;;;;;;13.95;3.70;;;;;;;23.54;45.64;101676.22;4980717;28;96525;-35
2022/05/10 10:23:56;;;;;;;9.88;4.70;;;;;;;23.71;45.15;101688.28;5015384;28;96553;-35
2022/05/10 10:26:42;;;;;;;9.48;4.40;;;;;;;23.70;44.41;101673.59;4997101;28;98071;-35
2022/05/10 10:29:34;;;;;;;11.18;4.43;;;;;;;23.74;44.86;101686.13;4996739;28;100868;-35
2022/05/10 10:32:06;;;;;;;12.13;4.90;;;;;;;23.88;44.88;101683.78;5015369;28;96571;-35
2022/05/10 10:34:57;;;;;;;9.13;4.50;;;;;;;24.16;44.92;101667.91;4997191;28;96789;-35
2022/05/10 10:37:33;;;;;;;10.17;4.40;;;;;;;24.20;44.59;101672.09;5014996;28;97461;-35
2022/05/10 10:40:01;;;;;;;13.75;4.80;;;;;;;24.26;44.61;101665.88;4996624;28;100611;-35
2022/05/10 10:42:37;;;;;;;9.60;4.38;;;;;;;24.39;44.15;101657.13;5014112;28;98057;-35
2022/05/10 10:45:08;;;;;;;13.15;5.15;;;;;;;24.56;44.35;101672.81;4996721;28;96906;-35
2022/05/10 10:47:43;;;;;;;13.23;5.05;;;;;;;24.54;45.00;101668.50;4996602;28;101062;-35
2022/05/10 10:50:14;;;;;;;13.13;5.30;;;;;;;24.35;44.53;101677.88;4996495;28;100847;-35
2022/05/10 10:52:40;;;;;;;13.55;6.32;;;;;;;24.38;45.21;101680.31;5014884;28;96534;-35
2022/05/10 10:55:07;;;;;;;16.08;5.32;;;;;;;24.28;44.83;101663.81;5014004;28;111686;-35
2022/05/10 10:57:41;;;;;;;20.10;5.85;;;;;;;24.27;45.25;101675.06;4996258;28;102598;-35
2022/05/10 11:00:24;;;;;;;14.25;5.55;;;;;;;24.10;45.29;101671.34;4996695;28;100705;-35
2022/05/10 11:02:58;;;;;;;16.83;5.20;;;;;;;24.17;45.53;101681.59;5014789;28;96571;-35
2022/05/10 11:05:29;;;;;;;12.43;5.20;;;;;;;24.22;45.63;101674.66;5014982;28;96700;-35
2022/05/10 11:08:01;;;;;;;19.52;4.97;;;;;;;24.12;45.91;101672.91;5017218;28;99409;-35
2022/05/10 11:11:03;;;;;;;14.68;4.80;;;;;;;24.26;44.63;101668.63;5017145;28;113397;-35
2022/05/10 11:13:37;;;;;;;12.23;4.63;;;;;;;24.36;44.74;101674.09;5018233;28;96890;-35
2022/05/10 11:16:24;;;;;;;12.02;5.22;;;;;;;24.31;44.86;101682.88;5017751;28;96669;-35
2022/05/10 11:19:11;;;;;;;18.08;6.05;;;;;;;24.27;44.38;101678.69;4999606;28;101109;-35
2022/05/10 11:22:09;;;;;;;16.45;6.03;;;;;;;24.09;45.06;101675.13;4999557;28;100685;-35
2022/05/10 11:25:08;;;;;;;12.73;5.05;;;;;;;23.96;45.58;101681.09;4999657;28;96640;-35
2022/05/10 11:28:06;;;;;;;11.63;6.10;;;;;;;23.84;45.04;101676.84;5018422;28;96579;-35
2022/05/10 11:30:40;;;;;;;11.63;5.07;;;;;;;23.90;45.49;101676.19;5016111;28;100857;-35
2022/05/10 11:33:19;;;;;;;20.65;5.75;;;;;;;24.22;45.15;101675.56;4999500;28;103641;-35
2022/05/10 11:36:21;;;;;;;13.35;5.25;;;;;;;24.37;44.31;101671.13;4999242;28;96668;-35